sensor_id;sensor_type;location;lat;lon;timestamp;pressure;altitude;pressure_sealevel;temperature;humidity
74659;BME280;63186;51.204;6.536;2023-07-13T00:00:27;101043.09;;;14.46;73.54
74659;BME280;63186;51.204;6.536;2023-07-13T00:02:52;101040.31;;;14.46;73.08
74659;BME280;63186;51.204;6.536;2023-07-13T00:05:22;101043.25;;;14.50;72.54
74659;BME280;63186;51.204;6.536;2023-07-13T00:07:48;101046.66;;;14.55;72.34
74659;BME280;63186;51.204;6.536;2023-07-13T00:10:14;101046.31;;;14.57;72.37
74659;BME280;63186;51.204;6.536;2023-07-13T00:12:40;101053.81;;;14.56;72.42
74659;BME280;63186;51.204;6.536;2023-07-13T00:15:10;101050.41;;;14.51;72.87
74659;BME280;63186;51.204;6.536;2023-07-13T00:17:37;101048.63;;;14.46;72.65
74659;BME280;63186;51.204;6.536;2023-07-13T00:20:04;101042.91;;;14.43;72.49
74659;BME280;63186;51.204;6.536;2023-07-13T00:22:30;101040.47;;;14.41;72.68
74659;BME280;63186;51.204;6.536;2023-07-13T00:24:55;101038.81;;;14.40;72.56
74659;BME280;63186;51.204;6.536;2023-07-13T00:27:24;101038.53;;;14.42;72.25
74659;BME280;63186;51.204;6.536;2023-07-13T00:29:51;101040.63;;;14.45;72.06
74659;BME280;63186;51.204;6.536;2023-07-13T00:32:18;101047.97;;;14.49;71.48
74659;BME280;63186;51.204;6.536;2023-07-13T00:34:43;101048.13;;;14.53;71.68
74659;BME280;63186;51.204;6.536;2023-07-13T00:37:08;101041.25;;;14.59;70.99
74659;BME280;63186;51.204;6.536;2023-07-13T00:39:35;101030.03;;;14.55;70.98
74659;BME280;63186;51.204;6.536;2023-07-13T00:42:01;101038.16;;;14.60;70.79
74659;BME280;63186;51.204;6.536;2023-07-13T00:44:26;101045.16;;;14.58;70.91
74659;BME280;63186;51.204;6.536;2023-07-13T00:46:52;101046.31;;;14.57;71.17
74659;BME280;63186;51.204;6.536;2023-07-13T00:49:20;101052.03;;;14.52;71.58
74659;BME280;63186;51.204;6.536;2023-07-13T00:51:50;101049.44;;;14.47;72.19
74659;BME280;63186;51.204;6.536;2023-07-13T00:54:27;101043.56;;;14.39;72.82
74659;BME280;63186;51.204;6.536;2023-07-13T00:56:58;101051.09;;;14.30;73.10
74659;BME280;63186;51.204;6.536;2023-07-13T00:59:24;101042.28;;;14.20;73.10
74659;BME280;63186;51.204;6.536;2023-07-13T01:01:49;101040.53;;;14.15;73.17
74659;BME280;63186;51.204;6.536;2023-07-13T01:04:15;101051.28;;;14.17;73.66
74659;BME280;63186;51.204;6.536;2023-07-13T01:06:41;101050.16;;;14.09;73.75
74659;BME280;63186;51.204;6.536;2023-07-13T01:09:09;101054.88;;;14.08;73.79
74659;BME280;63186;51.204;6.536;2023-07-13T01:11:35;101054.38;;;14.06;74.40
74659;BME280;63186;51.204;6.536;2023-07-13T01:14:02;101046.72;;;14.03;73.80
74659;BME280;63186;51.204;6.536;2023-07-13T01:16:31;101045.91;;;14.03;74.38
74659;BME280;63186;51.204;6.536;2023-07-13T01:18:56;101042.16;;;13.99;74.41
74659;BME280;63186;51.204;6.536;2023-07-13T01:21:27;101043.31;;;13.98;74.39
74659;BME280;63186;51.204;6.536;2023-07-13T01:23:53;101041.19;;;13.95;74.53
74659;BME280;63186;51.204;6.536;2023-07-13T01:26:18;101044.94;;;13.90;75.61
74659;BME280;63186;51.204;6.536;2023-07-13T01:28:43;101046.41;;;13.88;75.25
74659;BME280;63186;51.204;6.536;2023-07-13T01:31:09;101048.03;;;13.89;75.12
74659;BME280;63186;51.204;6.536;2023-07-13T01:33:37;101054.06;;;13.91;74.90
74659;BME280;63186;51.204;6.536;2023-07-13T01:36:05;101049.16;;;13.88;75.68
74659;BME280;63186;51.204;6.536;2023-07-13T01:38:30;101047.69;;;13.81;75.57
74659;BME280;63186;51.204;6.536;2023-07-13T01:40:56;101037.94;;;13.75;76.53
74659;BME280;63186;51.204;6.536;2023-07-13T01:43:21;101043.31;;;13.72;76.18
74659;BME280;63186;51.204;6.536;2023-07-13T01:45:46;101048.19;;;13.75;76.60
74659;BME280;63186;51.204;6.536;2023-07-13T01:48:13;101046.56;;;13.74;76.11
74659;BME280;63186;51.204;6.536;2023-07-13T01:50:38;101050.47;;;13.73;76.60
74659;BME280;63186;51.204;6.536;2023-07-13T01:53:04;101048.38;;;13.70;76.37
74659;BME280;63186;51.204;6.536;2023-07-13T01:55:29;101046.72;;;13.69;76.65
74659;BME280;63186;51.204;6.536;2023-07-13T01:57:55;101049.66;;;13.64;77.15
74659;BME280;63186;51.204;6.536;2023-07-13T02:00:21;101047.19;;;13.62;77.46
74659;BME280;63186;51.204;6.536;2023-07-13T02:02:46;101055.84;;;13.61;78.21
74659;BME280;63186;51.204;6.536;2023-07-13T02:05:12;101045.56;;;13.61;78.00
74659;BME280;63186;51.204;6.536;2023-07-13T02:07:38;101050.78;;;13.63;77.51
74659;BME280;63186;51.204;6.536;2023-07-13T02:10:05;101049.34;;;13.65;77.43
74659;BME280;63186;51.204;6.536;2023-07-13T02:12:31;101047.38;;;13.66;77.57
74659;BME280;63186;51.204;6.536;2023-07-13T02:14:56;101041.53;;;13.58;77.99
74659;BME280;63186;51.204;6.536;2023-07-13T02:17:21;101047.69;;;13.55;78.74
74659;BME280;63186;51.204;6.536;2023-07-13T02:19:47;101050.16;;;13.57;78.69
74659;BME280;63186;51.204;6.536;2023-07-13T02:22:12;101044.91;;;13.55;78.69
74659;BME280;63186;51.204;6.536;2023-07-13T02:24:37;101044.91;;;13.55;79.48
74659;BME280;63186;51.204;6.536;2023-07-13T02:27:03;101041.34;;;13.55;79.38
74659;BME280;63186;51.204;6.536;2023-07-13T02:29:29;101052.41;;;13.55;79.37
74659;BME280;63186;51.204;6.536;2023-07-13T02:31:54;101048.81;;;13.54;79.33
74659;BME280;63186;51.204;6.536;2023-07-13T02:34:19;101050.78;;;13.54;78.97
74659;BME280;63186;51.204;6.536;2023-07-13T02:36:45;101053.53;;;13.54;79.17
74659;BME280;63186;51.204;6.536;2023-07-13T02:39:11;101054.34;;;13.54;79.39
74659;BME280;63186;51.204;6.536;2023-07-13T02:41:37;101048.34;;;13.52;79.29
74659;BME280;63186;51.204;6.536;2023-07-13T02:44:02;101058.94;;;13.50;80.49
74659;BME280;63186;51.204;6.536;2023-07-13T02:46:33;101057.28;;;13.49;80.83
74659;BME280;63186;51.204;6.536;2023-07-13T02:48:59;101054.22;;;13.51;79.91
74659;BME280;63186;51.204;6.536;2023-07-13T02:51:25;101056.16;;;13.50;80.38
74659;BME280;63186;51.204;6.536;2023-07-13T02:53:50;101061.38;;;13.52;80.00
74659;BME280;63186;51.204;6.536;2023-07-13T02:56:16;101056.97;;;13.51;80.59
74659;BME280;63186;51.204;6.536;2023-07-13T02:58:41;101056.78;;;13.47;81.52
74659;BME280;63186;51.204;6.536;2023-07-13T03:01:10;101058.28;;;13.53;81.28
74659;BME280;63186;51.204;6.536;2023-07-13T03:03:37;101058.28;;;13.53;81.30
74659;BME280;63186;51.204;6.536;2023-07-13T03:06:04;101054.84;;;13.48;80.47
74659;BME280;63186;51.204;6.536;2023-07-13T03:08:31;101064.75;;;13.49;81.05
74659;BME280;63186;51.204;6.536;2023-07-13T03:11:01;101063.13;;;13.48;81.06
74659;BME280;63186;51.204;6.536;2023-07-13T03:13:27;101052.72;;;13.45;81.10
74659;BME280;63186;51.204;6.536;2023-07-13T03:15:52;101062.00;;;13.49;81.43
74659;BME280;63186;51.204;6.536;2023-07-13T03:18:17;101066.41;;;13.50;80.82
74659;BME280;63186;51.204;6.536;2023-07-13T03:20:42;101058.59;;;13.52;81.14
74659;BME280;63186;51.204;6.536;2023-07-13T03:23:08;101065.44;;;13.54;81.12
74659;BME280;63186;51.204;6.536;2023-07-13T03:25:33;101065.75;;;13.53;80.86
74659;BME280;63186;51.204;6.536;2023-07-13T03:27:58;101063.00;;;13.53;81.03
74659;BME280;63186;51.204;6.536;2023-07-13T03:30:23;101063.97;;;13.57;81.44
74659;BME280;63186;51.204;6.536;2023-07-13T03:32:49;101067.22;;;13.59;80.98
74659;BME280;63186;51.204;6.536;2023-07-13T03:35:14;101075.53;;;13.59;81.60
74659;BME280;63186;51.204;6.536;2023-07-13T03:37:39;101075.03;;;13.57;81.67
74659;BME280;63186;51.204;6.536;2023-07-13T03:40:08;101080.25;;;13.58;81.91
74659;BME280;63186;51.204;6.536;2023-07-13T03:42:34;101082.34;;;13.62;81.50
74659;BME280;63186;51.204;6.536;2023-07-13T03:45:00;101075.19;;;13.61;81.71
74659;BME280;63186;51.204;6.536;2023-07-13T03:47:25;101084.81;;;13.63;81.91
74659;BME280;63186;51.204;6.536;2023-07-13T03:49:50;101097.00;;;13.62;82.40
74659;BME280;63186;51.204;6.536;2023-07-13T03:52:15;101090.97;;;13.60;82.29
74659;BME280;63186;51.204;6.536;2023-07-13T03:54:41;101103.34;;;13.63;82.93
74659;BME280;63186;51.204;6.536;2023-07-13T03:57:06;101097.81;;;13.63;82.22
74659;BME280;63186;51.204;6.536;2023-07-13T03:59:31;101100.75;;;13.66;81.68
74659;BME280;63186;51.204;6.536;2023-07-13T04:01:57;101104.34;;;13.67;81.95
74659;BME280;63186;51.204;6.536;2023-07-13T04:04:22;101100.13;;;13.69;82.19
74659;BME280;63186;51.204;6.536;2023-07-13T04:06:47;101107.94;;;13.76;81.84
74659;BME280;63186;51.204;6.536;2023-07-13T04:09:12;101105.66;;;13.78;81.83
74659;BME280;63186;51.204;6.536;2023-07-13T04:11:38;101110.88;;;13.79;81.92
74659;BME280;63186;51.204;6.536;2023-07-13T04:14:03;101117.38;;;13.83;81.45
74659;BME280;63186;51.204;6.536;2023-07-13T04:16:29;101115.09;;;13.85;81.57
74659;BME280;63186;51.204;6.536;2023-07-13T04:18:55;101118.69;;;13.95;80.89
74659;BME280;63186;51.204;6.536;2023-07-13T04:21:25;101112.50;;;13.98;80.85
74659;BME280;63186;51.204;6.536;2023-07-13T04:23:51;101119.66;;;14.42;80.11
74659;BME280;63186;51.204;6.536;2023-07-13T04:26:16;101114.56;;;15.17;77.10
74659;BME280;63186;51.204;6.536;2023-07-13T04:28:41;101108.91;;;15.72;74.52
74659;BME280;63186;51.204;6.536;2023-07-13T04:31:07;101120.72;;;16.23;72.49
74659;BME280;63186;51.204;6.536;2023-07-13T04:33:32;101111.72;;;16.60;71.54
74659;BME280;63186;51.204;6.536;2023-07-13T04:35:59;101128.78;;;17.16;69.67
74659;BME280;63186;51.204;6.536;2023-07-13T04:38:29;101128.09;;;17.43;68.96
74659;BME280;63186;51.204;6.536;2023-07-13T04:41:00;101127.59;;;17.66;68.17
74659;BME280;63186;51.204;6.536;2023-07-13T04:43:26;101128.97;;;17.96;67.05
74659;BME280;63186;51.204;6.536;2023-07-13T04:45:52;101126.97;;;18.09;66.33
74659;BME280;63186;51.204;6.536;2023-07-13T04:48:17;101126.41;;;18.31;65.62
74659;BME280;63186;51.204;6.536;2023-07-13T04:50:43;101128.19;;;18.24;65.56
74659;BME280;63186;51.204;6.536;2023-07-13T04:53:08;101129.53;;;18.42;65.75
74659;BME280;63186;51.204;6.536;2023-07-13T04:55:34;101117.78;;;18.64;64.75
74659;BME280;63186;51.204;6.536;2023-07-13T04:57:59;101123.16;;;19.01;63.71
74659;BME280;63186;51.204;6.536;2023-07-13T05:00:26;101131.19;;;19.03;63.57
74659;BME280;63186;51.204;6.536;2023-07-13T05:02:52;101122.16;;;19.09;63.46
74659;BME280;63186;51.204;6.536;2023-07-13T05:05:17;101130.09;;;19.39;63.03
74659;BME280;63186;51.204;6.536;2023-07-13T05:07:42;101133.66;;;19.55;62.14
74659;BME280;63186;51.204;6.536;2023-07-13T05:10:08;101127.28;;;19.70;61.85
74659;BME280;63186;51.204;6.536;2023-07-13T05:12:34;101132.16;;;19.93;61.53
74659;BME280;63186;51.204;6.536;2023-07-13T05:14:59;101132.44;;;20.42;60.39
74659;BME280;63186;51.204;6.536;2023-07-13T05:17:24;101137.50;;;20.75;58.54
74659;BME280;63186;51.204;6.536;2023-07-13T05:19:50;101132.97;;;20.90;58.63
74659;BME280;63186;51.204;6.536;2023-07-13T05:22:15;101134.13;;;20.47;59.40
74659;BME280;63186;51.204;6.536;2023-07-13T05:24:40;101132.63;;;20.14;60.12
74659;BME280;63186;51.204;6.536;2023-07-13T05:27:05;101143.22;;;20.24;60.19
74659;BME280;63186;51.204;6.536;2023-07-13T05:29:31;101144.19;;;20.13;60.60
74659;BME280;63186;51.204;6.536;2023-07-13T05:31:56;101145.13;;;19.50;62.04
74659;BME280;63186;51.204;6.536;2023-07-13T05:34:22;101151.41;;;18.84;63.95
74659;BME280;63186;51.204;6.536;2023-07-13T05:36:47;101154.97;;;18.68;64.52
74659;BME280;63186;51.204;6.536;2023-07-13T05:39:13;101147.44;;;18.57;65.30
74659;BME280;63186;51.204;6.536;2023-07-13T05:41:39;101159.41;;;18.57;65.54
74659;BME280;63186;51.204;6.536;2023-07-13T05:44:04;101163.22;;;18.37;66.15
74659;BME280;63186;51.204;6.536;2023-07-13T05:46:29;101179.38;;;18.72;65.29
74659;BME280;63186;51.204;6.536;2023-07-13T05:48:55;101170.44;;;19.25;63.46
74659;BME280;63186;51.204;6.536;2023-07-13T05:51:21;101163.78;;;18.98;63.60
74659;BME280;63186;51.204;6.536;2023-07-13T05:53:46;101173.47;;;18.61;65.35
74659;BME280;63186;51.204;6.536;2023-07-13T05:56:11;101176.06;;;18.54;65.90
74659;BME280;63186;51.204;6.536;2023-07-13T05:58:37;101180.78;;;18.65;65.90
74659;BME280;63186;51.204;6.536;2023-07-13T06:01:09;101181.22;;;19.43;63.69
74659;BME280;63186;51.204;6.536;2023-07-13T06:03:35;101181.09;;;20.02;61.90
74659;BME280;63186;51.204;6.536;2023-07-13T06:06:04;101187.38;;;20.73;59.28
74659;BME280;63186;51.204;6.536;2023-07-13T06:08:29;101185.84;;;20.37;60.33
74659;BME280;63186;51.204;6.536;2023-07-13T06:11:01;101192.22;;;19.83;62.27
74659;BME280;63186;51.204;6.536;2023-07-13T06:13:26;101194.13;;;20.33;61.35
74659;BME280;63186;51.204;6.536;2023-07-13T06:15:51;101191.84;;;20.74;60.17
74659;BME280;63186;51.204;6.536;2023-07-13T06:18:17;101191.19;;;21.27;58.21
74659;BME280;63186;51.204;6.536;2023-07-13T06:20:42;101195.47;;;21.40;58.17
74659;BME280;63186;51.204;6.536;2023-07-13T06:23:07;101199.47;;;20.58;59.77
74659;BME280;63186;51.204;6.536;2023-07-13T06:25:33;101197.94;;;19.71;63.30
74659;BME280;63186;51.204;6.536;2023-07-13T06:27:58;101198.63;;;19.20;64.37
74659;BME280;63186;51.204;6.536;2023-07-13T06:30:23;101204.56;;;18.75;66.17
74659;BME280;63186;51.204;6.536;2023-07-13T06:32:49;101208.59;;;18.50;67.35
74659;BME280;63186;51.204;6.536;2023-07-13T06:35:14;101208.75;;;18.41;68.00
74659;BME280;63186;51.204;6.536;2023-07-13T06:37:40;101216.41;;;18.32;67.46
74659;BME280;63186;51.204;6.536;2023-07-13T06:40:05;101210.69;;;18.53;67.28
74659;BME280;63186;51.204;6.536;2023-07-13T06:42:31;101217.53;;;18.43;68.53
74659;BME280;63186;51.204;6.536;2023-07-13T06:44:56;101219.97;;;18.44;67.68
74659;BME280;63186;51.204;6.536;2023-07-13T06:47:22;101215.38;;;18.36;67.75
74659;BME280;63186;51.204;6.536;2023-07-13T06:49:47;101216.97;;;18.37;68.23
74659;BME280;63186;51.204;6.536;2023-07-13T06:52:12;101214.59;;;18.52;67.38
74659;BME280;63186;51.204;6.536;2023-07-13T06:54:37;101223.69;;;18.49;68.20
74659;BME280;63186;51.204;6.536;2023-07-13T06:57:03;101224.16;;;18.38;68.48
74659;BME280;63186;51.204;6.536;2023-07-13T06:59:28;101230.63;;;18.27;68.16
74659;BME280;63186;51.204;6.536;2023-07-13T07:01:54;101236.47;;;18.50;67.40
74659;BME280;63186;51.204;6.536;2023-07-13T07:04:19;101236.22;;;18.67;67.01
74659;BME280;63186;51.204;6.536;2023-07-13T07:06:44;101235.22;;;19.03;66.03
74659;BME280;63186;51.204;6.536;2023-07-13T07:09:10;101238.97;;;19.39;65.04
74659;BME280;63186;51.204;6.536;2023-07-13T07:11:36;101229.69;;;19.19;65.83
74659;BME280;63186;51.204;6.536;2023-07-13T07:14:01;101242.03;;;19.18;65.64
74659;BME280;63186;51.204;6.536;2023-07-13T07:16:26;101238.78;;;19.32;65.15
74659;BME280;63186;51.204;6.536;2023-07-13T07:18:51;101243.06;;;19.73;64.45
74659;BME280;63186;51.204;6.536;2023-07-13T07:21:17;101241.53;;;20.81;61.01
74659;BME280;63186;51.204;6.536;2023-07-13T07:23:43;101241.75;;;21.80;58.69
74659;BME280;63186;51.204;6.536;2023-07-13T07:26:09;101234.06;;;23.27;54.65
74659;BME280;63186;51.204;6.536;2023-07-13T07:28:35;101242.75;;;22.78;55.45
74659;BME280;63186;51.204;6.536;2023-07-13T07:31:01;101238.75;;;21.69;57.55
74659;BME280;63186;51.204;6.536;2023-07-13T07:33:26;101246.06;;;20.15;62.14
74659;BME280;63186;51.204;6.536;2023-07-13T07:35:51;101248.44;;;19.50;65.17
74659;BME280;63186;51.204;6.536;2023-07-13T07:38:17;101249.41;;;19.42;65.23
74659;BME280;63186;51.204;6.536;2023-07-13T07:40:42;101251.69;;;19.68;65.05
74659;BME280;63186;51.204;6.536;2023-07-13T07:43:09;101244.25;;;20.77;61.89
74659;BME280;63186;51.204;6.536;2023-07-13T07:45:35;101246.19;;;21.35;59.77
74659;BME280;63186;51.204;6.536;2023-07-13T07:48:03;101252.88;;;22.56;56.65
74659;BME280;63186;51.204;6.536;2023-07-13T07:50:28;101235.25;;;22.25;57.21
74659;BME280;63186;51.204;6.536;2023-07-13T07:52:54;101242.19;;;21.36;59.28
74659;BME280;63186;51.204;6.536;2023-07-13T07:55:23;101256.03;;;20.86;60.97
74659;BME280;63186;51.204;6.536;2023-07-13T07:57:50;101250.72;;;20.81;61.91
74659;BME280;63186;51.204;6.536;2023-07-13T08:00:16;101249.38;;;21.14;60.87
74659;BME280;63186;51.204;6.536;2023-07-13T08:02:41;101243.13;;;21.44;60.38
74659;BME280;63186;51.204;6.536;2023-07-13T08:05:08;101243.13;;;21.44;59.65
74659;BME280;63186;51.204;6.536;2023-07-13T08:07:35;101244.50;;;21.53;59.73
74659;BME280;63186;51.204;6.536;2023-07-13T08:10:00;101245.22;;;22.23;58.00
74659;BME280;63186;51.204;6.536;2023-07-13T08:12:26;101237.94;;;22.48;57.40
74659;BME280;63186;51.204;6.536;2023-07-13T08:14:52;101246.25;;;22.11;57.91
74659;BME280;63186;51.204;6.536;2023-07-13T08:17:23;101251.38;;;21.82;59.22
74659;BME280;63186;51.204;6.536;2023-07-13T08:19:48;101235.72;;;21.55;59.88
74659;BME280;63186;51.204;6.536;2023-07-13T08:22:14;101250.16;;;21.34;60.32
74659;BME280;63186;51.204;6.536;2023-07-13T08:24:39;101243.56;;;21.46;60.54
74659;BME280;63186;51.204;6.536;2023-07-13T08:27:04;101243.06;;;21.40;59.88
74659;BME280;63186;51.204;6.536;2023-07-13T08:29:30;101238.00;;;21.26;60.72
74659;BME280;63186;51.204;6.536;2023-07-13T08:31:57;101240.28;;;21.21;60.93
74659;BME280;63186;51.204;6.536;2023-07-13T08:34:22;101241.59;;;21.27;60.80
74659;BME280;63186;51.204;6.536;2023-07-13T08:36:48;101241.28;;;21.09;60.97
74659;BME280;63186;51.204;6.536;2023-07-13T08:39:13;101241.16;;;21.25;60.39
74659;BME280;63186;51.204;6.536;2023-07-13T08:41:38;101246.97;;;21.35;60.13
74659;BME280;63186;51.204;6.536;2023-07-13T08:44:16;101233.56;;;21.94;58.25
74659;BME280;63186;51.204;6.536;2023-07-13T08:46:45;101233.78;;;23.39;55.11
74659;BME280;63186;51.204;6.536;2023-07-13T08:49:15;101227.78;;;23.85;53.18
74659;BME280;63186;51.204;6.536;2023-07-13T08:51:51;101236.59;;;23.39;52.97
74659;BME280;63186;51.204;6.536;2023-07-13T08:54:29;101231.03;;;23.91;52.84
74659;BME280;63186;51.204;6.536;2023-07-13T08:56:56;101238.19;;;24.36;52.18
74659;BME280;63186;51.204;6.536;2023-07-13T08:59:27;101234.84;;;23.61;52.87
74659;BME280;63186;51.204;6.536;2023-07-13T09:02:13;101235.47;;;23.07;54.73
74659;BME280;63186;51.204;6.536;2023-07-13T09:04:56;101241.91;;;23.07;54.63
74659;BME280;63186;51.204;6.536;2023-07-13T09:07:32;101240.56;;;23.31;54.47
74659;BME280;63186;51.204;6.536;2023-07-13T09:10:17;101248.97;;;24.30;51.65
74659;BME280;63186;51.204;6.536;2023-07-13T09:13:00;101250.59;;;24.28;52.52
74659;BME280;63186;51.204;6.536;2023-07-13T09:15:39;101244.72;;;24.58;52.09
74659;BME280;63186;51.204;6.536;2023-07-13T09:20:52;101255.28;;;23.21;53.25
74659;BME280;63186;51.204;6.536;2023-07-13T09:23:21;101251.22;;;22.21;56.98
74659;BME280;63186;51.204;6.536;2023-07-13T09:25:49;101255.88;;;21.87;57.69
74659;BME280;63186;51.204;6.536;2023-07-13T09:28:26;101251.66;;;22.83;54.50
74659;BME280;63186;51.204;6.536;2023-07-13T09:31:00;101255.03;;;23.74;51.90
74659;BME280;63186;51.204;6.536;2023-07-13T09:33:27;101255.09;;;23.85;52.21
74659;BME280;63186;51.204;6.536;2023-07-13T09:35:55;101260.25;;;22.97;53.81
74659;BME280;63186;51.204;6.536;2023-07-13T09:38:25;101257.72;;;23.22;53.88
74659;BME280;63186;51.204;6.536;2023-07-13T09:41:18;101253.84;;;22.97;52.70
74659;BME280;63186;51.204;6.536;2023-07-13T09:46:31;101258.63;;;22.63;54.53
74659;BME280;63186;51.204;6.536;2023-07-13T09:48:56;101263.28;;;22.55;54.56
74659;BME280;63186;51.204;6.536;2023-07-13T09:51:22;101257.91;;;22.43;55.51
74659;BME280;63186;51.204;6.536;2023-07-13T09:53:47;101252.44;;;22.50;54.38
74659;BME280;63186;51.204;6.536;2023-07-13T09:56:27;101258.94;;;22.58;54.21
74659;BME280;63186;51.204;6.536;2023-07-13T09:58:53;101266.81;;;22.79;54.74
74659;BME280;63186;51.204;6.536;2023-07-13T10:01:32;101254.84;;;23.60;53.58
74659;BME280;63186;51.204;6.536;2023-07-13T10:03:58;101259.00;;;23.69;52.84
74659;BME280;63186;51.204;6.536;2023-07-13T10:06:24;101253.94;;;23.08;53.23
74659;BME280;63186;51.204;6.536;2023-07-13T10:08:51;101269.25;;;23.14;54.10
74659;BME280;63186;51.204;6.536;2023-07-13T10:11:39;101267.09;;;23.00;52.72
74659;BME280;63186;51.204;6.536;2023-07-13T10:14:17;101259.75;;;22.58;54.33
74659;BME280;63186;51.204;6.536;2023-07-13T10:16:45;101270.56;;;22.30;56.25
74659;BME280;63186;51.204;6.536;2023-07-13T10:19:19;101258.88;;;22.01;55.98
74659;BME280;63186;51.204;6.536;2023-07-13T10:21:56;101260.50;;;22.55;53.94
74659;BME280;63186;51.204;6.536;2023-07-13T10:24:29;101265.28;;;22.55;53.63
74659;BME280;63186;51.204;6.536;2023-07-13T10:27:19;101267.78;;;23.27;51.86
74659;BME280;63186;51.204;6.536;2023-07-13T10:32:35;101276.56;;;24.66;48.40
74659;BME280;63186;51.204;6.536;2023-07-13T10:35:01;101267.59;;;24.49;48.93
74659;BME280;63186;51.204;6.536;2023-07-13T10:37:32;101265.16;;;24.41;49.10
74659;BME280;63186;51.204;6.536;2023-07-13T10:39:59;101263.22;;;23.52;50.21
74659;BME280;63186;51.204;6.536;2023-07-13T10:42:46;101265.41;;;22.92;50.87
74659;BME280;63186;51.204;6.536;2023-07-13T10:45:21;101265.09;;;23.00;51.37
74659;BME280;63186;51.204;6.536;2023-07-13T10:47:49;101271.28;;;23.54;50.18
74659;BME280;63186;51.204;6.536;2023-07-13T10:50:19;101265.78;;;24.16;49.21
74659;BME280;63186;51.204;6.536;2023-07-13T10:52:46;101276.19;;;24.08;49.35
74659;BME280;63186;51.204;6.536;2023-07-13T10:58:10;101272.47;;;24.52;47.74
74659;BME280;63186;51.204;6.536;2023-07-13T11:00:44;101280.09;;;24.52;48.28
74659;BME280;63186;51.204;6.536;2023-07-13T11:03:14;101269.19;;;23.88;48.80
74659;BME280;63186;51.204;6.536;2023-07-13T11:05:40;101271.44;;;22.94;50.47
74659;BME280;63186;51.204;6.536;2023-07-13T11:08:20;101274.75;;;22.43;52.19
74659;BME280;63186;51.204;6.536;2023-07-13T11:10:52;101270.34;;;22.42;52.50
74659;BME280;63186;51.204;6.536;2023-07-13T11:16:43;101261.63;;;23.96;48.67
74659;BME280;63186;51.204;6.536;2023-07-13T11:25:02;101252.88;;;24.81;46.88
74659;BME280;63186;51.204;6.536;2023-07-13T11:27:50;101261.41;;;24.99;47.84
74659;BME280;63186;51.204;6.536;2023-07-13T11:30:35;101262.94;;;24.78;46.39
74659;BME280;63186;51.204;6.536;2023-07-13T11:33:16;101263.59;;;24.50;47.71
74659;BME280;63186;51.204;6.536;2023-07-13T11:38:22;101252.91;;;24.15;47.48
74659;BME280;63186;51.204;6.536;2023-07-13T11:40:48;101258.22;;;24.27;47.61
74659;BME280;63186;51.204;6.536;2023-07-13T11:43:16;101247.22;;;24.74;47.01
74659;BME280;63186;51.204;6.536;2023-07-13T11:45:42;101240.03;;;24.87;46.04
74659;BME280;63186;51.204;6.536;2023-07-13T11:48:25;101242.38;;;24.67;47.08
74659;BME280;63186;51.204;6.536;2023-07-13T11:50:56;101238.41;;;24.86;45.54
74659;BME280;63186;51.204;6.536;2023-07-13T11:53:26;101250.13;;;24.99;44.48
74659;BME280;63186;51.204;6.536;2023-07-13T11:55:52;101247.97;;;24.63;46.77
74659;BME280;63186;51.204;6.536;2023-07-13T11:58:23;101241.63;;;24.81;45.58
74659;BME280;63186;51.204;6.536;2023-07-13T12:00:49;101244.50;;;24.99;43.90
74659;BME280;63186;51.204;6.536;2023-07-13T12:03:21;101248.03;;;24.74;44.13
74659;BME280;63186;51.204;6.536;2023-07-13T12:06:06;101242.78;;;24.76;45.52
74659;BME280;63186;51.204;6.536;2023-07-13T12:08:45;101245.75;;;25.15;44.65
74659;BME280;63186;51.204;6.536;2023-07-13T12:11:19;101240.56;;;25.25;44.47
74659;BME280;63186;51.204;6.536;2023-07-13T12:13:46;101234.34;;;24.76;45.28
74659;BME280;63186;51.204;6.536;2023-07-13T12:16:32;101231.06;;;24.53;47.26
74659;BME280;63186;51.204;6.536;2023-07-13T12:19:02;101236.00;;;24.88;44.91
74659;BME280;63186;51.204;6.536;2023-07-13T12:21:38;101230.47;;;25.16;43.40
74659;BME280;63186;51.204;6.536;2023-07-13T12:24:04;101231.72;;;25.51;43.73
74659;BME280;63186;51.204;6.536;2023-07-13T12:26:31;101231.31;;;25.31;42.62
74659;BME280;63186;51.204;6.536;2023-07-13T12:29:00;101228.81;;;24.98;44.63
74659;BME280;63186;51.204;6.536;2023-07-13T12:36:23;101227.41;;;24.45;45.01
74659;BME280;63186;51.204;6.536;2023-07-13T12:38:48;101228.66;;;24.62;43.79
74659;BME280;63186;51.204;6.536;2023-07-13T12:41:14;101235.59;;;24.86;43.98
74659;BME280;63186;51.204;6.536;2023-07-13T12:43:40;101233.72;;;25.19;43.99
74659;BME280;63186;51.204;6.536;2023-07-13T12:46:17;101235.34;;;25.55;42.40
74659;BME280;63186;51.204;6.536;2023-07-13T12:48:43;101249.81;;;25.36;42.52
74659;BME280;63186;51.204;6.536;2023-07-13T12:51:13;101241.78;;;25.31;42.73
74659;BME280;63186;51.204;6.536;2023-07-13T12:53:41;101248.22;;;25.42;43.08
74659;BME280;63186;51.204;6.536;2023-07-13T12:56:17;101238.16;;;25.55;42.39
74659;BME280;63186;51.204;6.536;2023-07-13T12:58:45;101234.50;;;25.19;42.76
74659;BME280;63186;51.204;6.536;2023-07-13T13:01:14;101240.75;;;24.70;43.03
74659;BME280;63186;51.204;6.536;2023-07-13T13:03:44;101233.53;;;24.76;43.50
74659;BME280;63186;51.204;6.536;2023-07-13T13:08:45;101252.16;;;24.22;44.64
74659;BME280;63186;51.204;6.536;2023-07-13T13:11:11;101249.44;;;24.36;44.43
74659;BME280;63186;51.204;6.536;2023-07-13T13:13:36;101253.88;;;24.37;44.53
74659;BME280;63186;51.204;6.536;2023-07-13T13:16:29;101256.63;;;24.30;45.18
74659;BME280;63186;51.204;6.536;2023-07-13T13:18:49;101247.66;;;24.06;45.40
74659;BME280;63186;51.204;6.536;2023-07-13T13:21:16;101248.72;;;23.88;45.15
74659;BME280;63186;51.204;6.536;2023-07-13T13:23:41;101251.03;;;23.78;45.97